石垣島, 日本

2014年8月23日 10時32分 (GMT +0900)
Ishigaki | Change Station
CLOSE
Current Station
機場
Location: Ishigakijima,
海拔: 23 ft
附近的氣象站

海拔 23 ft 24.34 °N, 124.16 °E | Updated 32 minutes ago

Scattered Clouds
多雲時晴
86 °F
感覺像 99 °F
8
風 變化 風 來自 東北偏東

今日
高 -- | 低 -- °F
--% 降水機率
昨天
高 -- | 低 -- °F
Precip. -- 英寸
6:21 AM 7:10 PM
殘月, 6% visible
氣壓 29.86 英寸
能見度 6.2 英里
多雲 多雲時晴 1600 ft
高溫指數 99 °F
露點 79 °F
濕度 79%
降雨量 0.00 英寸
積雪深度 不適用。
紫外線 7 / 12
花粉 不適用。
空氣質素 不適用。
Flu Activity 不適用。
METAR ROIG 230100Z 07007KT 9999 SCT016 30/26 Q1011

More Conditions Fewer Conditions

氣壓 29.86 英寸
能見度 6.2 英里
多雲 多雲時晴 1600 ft
高溫指數 99 °F
露點 79 °F
濕度 79%
降雨量 0.00 英寸
積雪深度 不適用。
紫外線 7 / 12
花粉 不適用。
空氣質素 不適用。
Flu Activity 不適用。
METAR ROIG 230100Z 07007KT 9999 SCT016 30/26 Q1011

More Conditions Fewer Conditions

10-Day Weather Forecast

Almanac

天文

Aug. 23, 2014 昇起 降落
實際時間 06:21 JST 19:10 JST
民用曙暮光 05:57 JST 19:33 JST
航海曙暮光 05:30 JST 20:01 JST
天文學微明 05:01 JST 20:29 JST
月亮 04:11 JST 17:29 JST
可見光的長度 13h 36m
白晝時間
12h 49m
Tomorrow will be 1m 19s shorter.
殘月, 6% of the Moon is Illuminated
8月 22
殘月
8月 25
9月 2
第一季
9月 8
滿月
9月 15
第四季

昨天之最

國家高溫 國家低溫

Community

WunderPhotos

Upload Photos

1,746,337 照片已上傳!

WunderBlogs® & News

Nearby

積雪量

Not available.

地震活動

城市 距離 時間和日期
附近沒有最近發生的地震活動。
顯示的最小幅度是2.5。

沿海水溫

地點 溫度
無任何天氣監測站報告

附近的氣象站